createdAt,value
2023-03-22T00:03:53.729Z,100167.50
2023-03-22T00:08:07.527Z,100151.72
2023-03-22T00:12:19.965Z,100144.69
2023-03-22T00:16:35.028Z,100148.19
2023-03-22T00:20:52.540Z,100138.44
2023-03-22T00:25:05.957Z,100141.19
2023-03-22T00:29:19.890Z,100145.63
2023-03-22T00:33:36.907Z,100137.75
2023-03-22T00:37:51.076Z,100132.34
2023-03-22T00:42:07.828Z,100131.41
2023-03-22T00:46:21.351Z,100131.53
2023-03-22T00:50:33.938Z,100122.81
2023-03-22T00:54:46.441Z,100123.78
2023-03-22T00:58:59.208Z,100119.41
2023-03-22T01:03:17.167Z,100113.19
2023-03-22T01:07:29.674Z,100113.97
2023-03-22T01:11:43.619Z,100101.75
2023-03-22T01:15:56.310Z,100098.06
2023-03-22T01:20:09.781Z,100101.47
2023-03-22T01:24:22.344Z,100098.94
2023-03-22T01:28:35.885Z,100089.44
2023-03-22T01:32:48.362Z,100087.72
2023-03-22T01:37:05.164Z,100088.38
2023-03-22T01:41:19.220Z,100084.91
2023-03-22T01:45:51.798Z,100078.03
2023-03-22T01:50:10.016Z,100088.53
2023-03-22T01:54:38.774Z,100087.78
2023-03-22T01:59:14.520Z,100076.16
2023-03-22T02:04:15.798Z,100081.63
2023-03-22T02:08:29.589Z,100081.63
2023-03-22T02:13:24.709Z,100105.44
2023-03-22T02:18:22.285Z,100103.53
2023-03-22T02:23:10.037Z,100107.03
2023-03-22T02:27:56.243Z,100108.78
2023-03-22T02:32:29.806Z,100104.56
2023-03-22T02:37:12.186Z,100109.88
2023-03-22T02:41:48.390Z,100112.50
2023-03-22T02:46:10.307Z,100116.91
2023-03-22T02:50:38.503Z,100105.41
2023-03-22T02:55:17.838Z,100103.72
2023-03-22T02:59:33.398Z,100131.88
2023-03-22T03:03:53.080Z,100109.81
2023-03-22T03:08:11.389Z,100116.81
2023-03-22T03:12:28.437Z,100131.81
2023-03-22T03:16:42.254Z,100124.84
2023-03-22T03:21:17.486Z,100133.69
2023-03-22T03:26:03.080Z,100132.81
2023-03-22T03:30:34.272Z,100138.94
2023-03-22T03:34:55.741Z,100150.38
2023-03-22T03:39:17.269Z,100152.16
2023-03-22T03:43:32.714Z,100145.16
2023-03-22T03:47:55.766Z,100146.03
2023-03-22T03:52:08.419Z,100153.03
2023-03-22T03:56:20.826Z,100146.00
2023-03-22T04:00:37.615Z,100147.75
2023-03-22T04:05:16.439Z,100150.38
2023-03-22T04:09:35.209Z,100139.84
2023-03-22T04:14:12.003Z,100138.94
2023-03-22T04:18:24.778Z,100144.25
2023-03-22T04:22:41.240Z,100152.19
2023-03-22T04:26:53.811Z,100153.06
2023-03-22T04:31:11.258Z,100147.78
2023-03-22T04:35:37.150Z,100158.34
2023-03-22T04:39:49.677Z,100164.47
2023-03-22T04:44:40.586Z,100163.63
2023-03-22T04:48:53.196Z,100166.25
2023-03-22T04:53:07.623Z,100171.50
2023-03-22T04:57:20.198Z,100164.47
2023-03-22T05:01:35.641Z,100169.75
2023-03-22T05:05:58.453Z,100170.66
2023-03-22T05:10:16.390Z,100175.94
2023-03-22T05:14:29.372Z,100175.94
2023-03-22T05:18:48.446Z,100183.84
2023-03-22T05:23:03.013Z,100203.22
2023-03-22T05:27:17.026Z,100189.13
2023-03-22T05:31:29.732Z,100195.31
2023-03-22T05:35:46.387Z,100196.22
2023-03-22T05:39:59.023Z,100199.72
2023-03-22T05:44:20.575Z,100198.81
2023-03-22T05:48:54.852Z,100193.50
2023-03-22T05:53:09.064Z,100204.06
2023-03-22T05:57:43.898Z,100207.50
2023-03-22T06:01:56.430Z,100222.44
2023-03-22T06:06:11.115Z,100212.69
2023-03-22T06:10:33.369Z,100224.03
2023-03-22T06:14:46.110Z,100238.06
2023-03-22T06:19:33.466Z,100225.69
2023-03-22T06:23:49.090Z,100231.72
2023-03-22T06:28:02.031Z,100232.34
2023-03-22T06:32:15.613Z,100235.56
2023-03-22T06:36:28.086Z,100229.28
2023-03-22T06:40:53.777Z,100233.31
2023-03-22T06:45:08.243Z,100229.94
2023-03-22T06:49:24.303Z,100239.63
2023-03-22T06:53:38.906Z,100246.56
2023-03-22T06:57:51.496Z,100238.66
2023-03-22T07:02:04.506Z,100249.91
2023-03-22T07:06:17.643Z,100245.31
2023-03-22T07:10:34.059Z,100242.63
2023-03-22T07:14:46.678Z,100252.03
2023-03-22T07:19:12.352Z,100253.25
2023-03-22T07:23:24.882Z,100254.09
2023-03-22T07:27:38.487Z,100250.81
2023-03-22T07:31:51.086Z,100253.47
2023-03-22T07:36:24.010Z,100257.50
2023-03-22T07:40:37.764Z,100260.84
2023-03-22T07:44:51.676Z,100262.81
2023-03-22T07:49:04.316Z,100262.94
2023-03-22T07:53:49.101Z,100263.72
2023-03-22T07:58:02.134Z,100267.38
2023-03-22T08:02:14.799Z,100260.84
2023-03-22T08:06:34.233Z,100255.34
2023-03-22T08:10:51.321Z,100260.31
2023-03-22T08:15:04.095Z,100258.81
2023-03-22T08:19:17.561Z,100255.94
2023-03-22T08:23:40.956Z,100253.75
2023-03-22T08:28:16.124Z,100256.16
2023-03-22T08:32:29.179Z,100255.50
2023-03-22T08:36:43.146Z,100258.81
2023-03-22T08:40:55.680Z,100253.94
2023-03-22T08:45:11.006Z,100256.31
2023-03-22T08:49:32.993Z,100263.34
2023-03-22T08:53:52.560Z,100253.16
2023-03-22T08:58:25.018Z,100253.41
2023-03-22T09:03:00.000Z,100243.88
2023-03-22T09:07:13.036Z,100244.63
2023-03-22T09:11:29.557Z,100244.50
2023-03-22T09:15:42.071Z,100237.94
2023-03-22T09:20:12.157Z,100238.03
2023-03-22T09:24:27.290Z,100233.00
2023-03-22T09:28:42.639Z,100237.38
2023-03-22T09:32:55.412Z,100223.00
2023-03-22T09:37:07.948Z,100225.97
2023-03-22T09:41:57.732Z,100226.41
2023-03-22T09:46:26.207Z,100220.03
2023-03-22T09:50:47.058Z,100220.03
2023-03-22T09:54:59.745Z,100230.56
2023-03-22T09:59:30.098Z,100218.94
2023-03-22T10:04:26.927Z,100214.22
2023-03-22T10:08:47.179Z,100224.34
2023-03-22T10:13:28.320Z,100218.84
2023-03-22T10:17:47.909Z,100217.97
2023-03-22T10:22:05.023Z,100212.75
2023-03-22T10:26:34.941Z,100210.13
2023-03-22T10:30:54.776Z,100207.47
2023-03-22T10:35:08.894Z,100200.31
2023-03-22T10:39:39.850Z,100198.78
2023-03-22T10:44:06.762Z,100197.03
2023-03-22T10:48:30.103Z,100197.13
2023-03-22T10:53:16.823Z,100192.53
2023-03-22T10:57:30.328Z,100202.28
2023-03-22T11:01:47.372Z,100195.53
2023-03-22T11:06:17.681Z,100184.44
2023-03-22T11:10:35.018Z,100179.47
2023-03-22T11:14:47.633Z,100179.16
2023-03-22T11:19:03.817Z,100178.06
2023-03-22T11:23:18.251Z,100173.78
2023-03-22T11:27:37.320Z,100170.16
2023-03-22T11:31:57.350Z,100175.38
2023-03-22T11:36:19.188Z,100165.78
2023-03-22T11:40:36.473Z,100162.84
2023-03-22T11:44:49.680Z,100157.94
2023-03-22T11:49:08.011Z,100145.75
2023-03-22T11:53:25.191Z,100135.91
2023-03-22T11:57:38.398Z,100137.66
2023-03-22T12:02:29.365Z,100127.00
2023-03-22T12:06:43.384Z,100126.50
2023-03-22T12:11:06.589Z,100120.00
2023-03-22T12:15:26.247Z,100107.81
2023-03-22T12:20:07.298Z,100103.31
2023-03-22T12:24:29.446Z,100098.41
2023-03-22T12:29:07.096Z,100086.81
2023-03-22T12:33:32.643Z,100082.66
2023-03-22T12:37:51.956Z,100084.03
2023-03-22T12:42:27.358Z,100087.88
2023-03-22T12:47:27.983Z,100078.94
2023-03-22T12:51:42.921Z,100074.06
2023-03-22T12:55:56.412Z,100071.91
2023-03-22T13:00:17.901Z,100075.19
2023-03-22T13:04:51.617Z,100067.53
2023-03-22T13:09:29.051Z,100065.47
2023-03-22T13:13:45.262Z,100070.81
2023-03-22T13:17:59.244Z,100055.34
2023-03-22T13:22:28.185Z,100062.09
2023-03-22T13:26:48.452Z,100052.78
2023-03-22T13:31:01.801Z,100061.63
2023-03-22T13:35:23.785Z,100066.44
2023-03-22T13:39:41.795Z,100056.03
2023-03-22T13:44:00.251Z,100054.28
2023-03-22T13:48:30.364Z,100061.22
2023-03-22T13:52:57.560Z,100061.53
2023-03-22T13:57:49.441Z,100070.34
2023-03-22T14:02:07.836Z,100070.34
2023-03-22T14:06:25.296Z,100065.16
2023-03-22T14:10:43.888Z,100068.09
2023-03-22T14:15:05.058Z,100071.84
2023-03-22T14:19:22.461Z,100064.09
